Time;durP1;ratioP1;P1;durP2;ratioP2;P2;SDS_P1;SDS_P2;PMS_P1;PMS_P2;Temp;Humidity;BMP_temperature;BMP_pressure;BME280_temperature;BME280_humidity;BME280_pressure;Samples;Min_cycle;Max_cycle;Signal;HPM_P1;HPM_P2
2022/05/04 00:00:45;;;;;;;;;26.00;18.75;;;;;24.60;35.96;101429.63;5003076;28;47150;-79
2022/05/04 00:03:11;;;;;;;;;34.75;25.25;;;;;24.64;35.86;101416.63;5021052;28;45439;-79
2022/05/04 00:05:37;;;;;;;;;31.50;21.50;;;;;24.59;35.80;101432.50;5021833;28;45407;-80
2022/05/04 00:08:03;;;;;;;;;27.00;22.00;;;;;24.88;35.86;101412.91;5021378;28;45567;-80
2022/05/04 00:10:30;;;;;;;;;27.25;20.50;;;;;24.92;34.93;101414.25;5020864;28;46538;-80
2022/05/04 00:12:57;;;;;;;;;25.25;21.25;;;;;24.95;35.10;101413.88;5003448;28;45223;-80
2022/05/04 00:15:22;;;;;;;;;28.25;22.75;;;;;25.02;34.96;101414.88;5021619;28;45416;-80
2022/05/04 00:17:48;;;;;;;;;35.75;21.25;;;;;25.02;35.50;101406.75;5021022;28;45243;-80
2022/05/04 00:20:13;;;;;;;;;29.50;23.00;;;;;24.56;35.47;101422.94;5009275;28;47138;-79
2022/05/04 00:22:38;;;;;;;;;28.00;25.75;;;;;24.66;35.30;101408.34;5021199;28;45359;-79
2022/05/04 00:25:04;;;;;;;;;30.00;24.00;;;;;24.65;35.74;101410.22;5021726;28;45639;-79
2022/05/04 00:27:30;;;;;;;;;32.75;24.00;;;;;24.36;36.01;101410.03;5020934;28;45629;-79
2022/05/04 00:29:55;;;;;;;;;27.50;23.25;;;;;24.25;35.76;101403.16;5021000;28;45406;-80
2022/05/04 00:32:21;;;;;;;;;33.00;25.00;;;;;24.35;36.21;101400.25;5017498;28;45432;-80
2022/05/04 00:34:47;;;;;;;;;31.25;24.25;;;;;24.85;35.46;101399.78;5000967;28;45464;-80
2022/05/04 00:37:13;;;;;;;;;31.75;23.75;;;;;24.34;35.26;101399.41;5012793;28;45541;-80
2022/05/04 00:39:39;;;;;;;;;24.75;24.25;;;;;24.22;36.47;101393.56;5020269;28;46252;-79
2022/05/04 00:42:08;;;;;;;;;30.50;23.75;;;;;24.27;36.06;101394.91;5019029;28;45396;-80
2022/05/04 00:44:34;;;;;;;;;20.00;19.00;;;;;24.16;36.22;101385.31;5020788;28;45234;-80
2022/05/04 00:47:00;;;;;;;;;37.00;25.00;;;;;24.15;36.48;101391.72;5021252;28;45317;-80
2022/05/04 00:49:27;;;;;;;;;26.75;21.00;;;;;24.18;36.48;101384.13;5011533;28;46306;-80
2022/05/04 00:51:53;;;;;;;;;32.00;21.50;;;;;24.08;36.86;101393.44;5021475;28;45569;-80
2022/05/04 00:54:19;;;;;;;;;27.50;22.25;;;;;24.12;36.39;101392.94;5003378;28;45591;-80
2022/05/04 00:56:44;;;;;;;;;28.50;25.75;;;;;24.09;36.40;101395.13;5024654;28;45326;-80
2022/05/04 00:59:10;;;;;;;;;30.25;24.00;;;;;24.05;36.02;101394.63;5024625;28;46375;-80
2022/05/04 01:01:35;;;;;;;;;28.75;24.25;;;;;24.16;36.04;101402.34;5025123;28;45190;-80
2022/05/04 01:04:01;;;;;;;;;32.00;26.00;;;;;24.10;35.97;101403.06;5024734;28;45212;-80
2022/05/04 01:06:27;;;;;;;;;30.50;24.50;;;;;24.09;36.42;101405.94;5006689;28;45503;-80
2022/05/04 01:08:53;;;;;;;;;29.00;25.50;;;;;24.36;36.15;101404.63;5021633;28;45610;-79
2022/05/04 01:11:20;;;;;;;;;28.00;19.75;;;;;24.68;35.70;101395.47;5021073;28;45595;-80
2022/05/04 01:14:02;;;;;;;;;34.75;22.50;;;;;24.42;35.88;101395.81;5020727;28;45438;-80
2022/05/04 01:16:29;;;;;;;;;29.25;24.50;;;;;24.35;36.61;101401.09;5020096;28;45523;-80
2022/05/04 01:18:55;;;;;;;;;34.50;26.50;;;;;24.26;36.32;101396.75;5019982;28;45360;-80
2022/05/04 01:21:20;;;;;;;;;34.00;24.25;;;;;24.20;36.00;101402.84;5002486;28;45447;-79
2022/05/04 01:23:46;;;;;;;;;26.75;23.25;;;;;24.18;35.68;101399.47;5020678;28;45843;-79
2022/05/04 01:26:16;;;;;;;;;32.50;26.50;;;;;24.31;35.43;101404.34;5019832;28;45480;-79
2022/05/04 01:28:45;;;;;;;;;34.00;26.25;;;;;24.25;35.86;101408.56;5019937;28;45609;-79
2022/05/04 01:31:10;;;;;;;;;37.25;25.00;;;;;24.31;35.53;101410.56;5019938;28;45456;-79
2022/05/04 01:33:36;;;;;;;;;30.25;23.25;;;;;24.32;35.55;101404.13;5020054;28;45422;-79
2022/05/04 01:36:02;;;;;;;;;30.50;25.00;;;;;24.48;35.25;101405.94;5019566;28;45432;-79
2022/05/04 01:38:27;;;;;;;;;29.00;24.00;;;;;24.40;35.50;101397.88;5019930;28;45491;-79
2022/05/04 01:40:53;;;;;;;;;36.50;23.25;;;;;24.37;35.63;101414.44;5001888;28;45461;-79
2022/05/04 01:43:18;;;;;;;;;32.50;25.25;;;;;24.27;35.70;101397.59;5020246;28;45297;-79
2022/05/04 01:45:44;;;;;;;;;34.75;27.50;;;;;24.19;36.40;101393.91;5018891;28;45435;-79
2022/05/04 01:48:09;;;;;;;;;33.75;25.75;;;;;24.06;36.16;101398.16;5019635;28;46448;-80
2022/05/04 01:50:35;;;;;;;;;33.00;27.00;;;;;24.28;35.74;101400.13;5019964;28;45420;-80
2022/05/04 01:53:00;;;;;;;;;32.25;21.75;;;;;24.12;36.52;101394.78;5021179;28;45172;-79
2022/05/04 01:55:25;;;;;;;;;33.50;23.00;;;;;24.38;36.09;101399.91;5023454;28;45202;-79
2022/05/04 01:57:51;;;;;;;;;30.50;25.00;;;;;23.94;36.04;101397.72;5023953;28;45334;-79
2022/05/04 02:00:16;;;;;;;;;34.25;23.25;;;;;24.22;36.22;101395.41;5015024;28;45223;-79
2022/05/04 02:02:43;;;;;;;;;33.00;23.25;;;;;24.16;35.79;101399.66;5019633;28;45454;-79
2022/05/04 02:05:08;;;;;;;;;37.25;25.50;;;;;23.95;36.11;101412.88;5022607;28;45266;-79
2022/05/04 02:07:36;;;;;;;;;33.50;24.25;;;;;23.87;36.87;101402.13;5022539;28;45350;-79
2022/05/04 02:10:03;;;;;;;;;32.25;23.50;;;;;24.26;35.87;101404.84;5020070;28;45420;-79
2022/05/04 02:12:30;;;;;;;;;32.00;21.75;;;;;24.03;36.92;101402.09;5019746;28;45447;-79
2022/05/04 02:14:55;;;;;;;;;28.75;22.75;;;;;24.03;36.18;101409.34;5019557;28;45165;-79
2022/05/04 02:17:20;;;;;;;;;28.25;27.50;;;;;23.84;37.08;101397.09;5019282;28;46470;-79
2022/05/04 02:19:46;;;;;;;;;30.50;24.50;;;;;24.01;36.58;101404.09;5018951;28;45283;-79
2022/05/04 02:22:11;;;;;;;;;29.25;24.00;;;;;23.96;36.75;101397.53;5001658;28;45305;-80
2022/05/04 02:24:37;;;;;;;;;29.00;24.00;;;;;23.81;36.73;101395.56;5019487;28;45306;-80
2022/05/04 02:27:02;;;;;;;;;31.50;28.75;;;;;23.73;37.28;101394.75;5018887;28;45214;-80
2022/05/04 02:29:29;;;;;;;;;28.00;20.25;;;;;24.28;35.85;101399.28;5019291;28;45610;-79
2022/05/04 02:31:57;;;;;;;;;33.75;27.25;;;;;24.82;36.04;101384.75;5019364;28;45587;-79
2022/05/04 02:34:22;;;;;;;;;35.00;27.25;;;;;23.69;37.11;101396.94;5019135;28;45475;-79
2022/05/04 02:39:32;;;;;;;;;33.50;24.25;;;;;23.95;36.41;101393.16;5019239;28;45450;-79
2022/05/04 02:41:57;;;;;;;;;26.75;21.00;;;;;23.97;36.16;101391.97;5019296;28;45340;-79
2022/05/04 02:44:25;;;;;;;;;27.75;25.50;;;;;24.34;35.89;101402.13;5006928;28;45573;-79
2022/05/04 02:46:50;;;;;;;;;28.50;24.75;;;;;24.03;36.34;101398.53;4997807;28;47287;-79
2022/05/04 02:49:16;;;;;;;;;31.25;23.75;;;;;24.04;35.77;101397.50;5019278;28;45262;-79
2022/05/04 02:51:42;;;;;;;;;31.50;23.25;;;;;24.11;36.23;101398.50;4998114;28;45215;-80
2022/05/04 02:54:07;;;;;;;;;34.75;26.75;;;;;23.87;36.79;101385.94;5016882;28;45385;-80
2022/05/04 02:56:32;;;;;;;;;29.00;23.00;;;;;23.85;36.97;101393.38;5002415;28;46819;-79
2022/05/04 02:58:58;;;;;;;;;31.25;25.50;;;;;23.78;36.60;101385.13;5004681;28;45730;-79
2022/05/04 03:04:10;;;;;;;;;35.50;27.75;;;;;24.02;36.34;101373.41;5022226;28;45318;-79
2022/05/04 03:06:37;;;;;;;;;36.00;29.50;;;;;23.96;36.06;101379.50;5022310;28;46125;-79
2022/05/04 03:09:04;;;;;;;;;31.50;28.25;;;;;24.06;36.43;101371.19;5024020;28;45496;-79
2022/05/04 03:14:13;;;;;;;;;31.50;26.50;;;;;23.80;36.85;101383.09;5022118;28;45420;-79
2022/05/04 03:16:39;;;;;;;;;36.75;27.75;;;;;23.76;36.42;101370.97;5022426;28;45550;-79
2022/05/04 03:19:06;;;;;;;;;46.00;32.75;;;;;24.21;35.74;101383.81;5021794;28;45226;-80
2022/05/04 03:21:33;;;;;;;;;39.50;33.00;;;;;23.99;36.48;101375.59;5021170;28;45502;-79
2022/05/04 03:23:58;;;;;;;;;45.25;32.50;;;;;24.12;36.01;101373.19;5004102;28;45183;-79
2022/05/04 03:26:24;;;;;;;;;49.25;35.25;;;;;24.15;36.16;101375.53;5022405;28;46409;-79
2022/05/04 03:28:50;;;;;;;;;53.25;39.00;;;;;23.98;35.90;101363.97;5003045;28;45251;-79
2022/05/04 03:31:16;;;;;;;;;50.25;39.00;;;;;24.18;36.02;101376.03;5010039;28;45325;-79
2022/05/04 03:33:42;;;;;;;;;51.00;41.00;;;;;23.54;36.37;101366.34;5022279;28;45613;-79
2022/05/04 03:36:07;;;;;;;;;49.25;38.25;;;;;23.79;36.38;101376.03;5021829;28;45321;-79
2022/05/04 03:38:33;;;;;;;;;48.75;37.00;;;;;23.97;35.79;101373.09;5002482;28;45569;-79
2022/05/04 03:40:58;;;;;;;;;51.75;37.50;;;;;24.16;36.27;101367.25;5009757;28;45455;-79
2022/05/04 03:43:24;;;;;;;;;50.50;38.00;;;;;23.60;36.42;101371.03;5020615;28;45455;-79
2022/05/04 03:45:49;;;;;;;;;43.75;33.75;;;;;23.80;36.24;101372.31;5024867;28;46198;-80
2022/05/04 03:48:14;;;;;;;;;52.75;35.75;;;;;23.43;37.23;101355.88;5025785;28;45452;-80
2022/05/04 03:50:40;;;;;;;;;44.75;33.75;;;;;25.50;33.42;101355.91;5026182;28;45306;-79
2022/05/04 03:53:05;;;;;;;;;43.50;31.25;;;;;24.17;35.68;101360.00;5025923;28;45463;-79
2022/05/04 03:55:31;;;;;;;;;36.50;30.00;;;;;23.68;36.72;101354.81;5024738;28;46119;-79
2022/05/04 03:57:56;;;;;;;;;29.25;24.00;;;;;30.57;25.12;101355.47;5023913;28;45239;-79
2022/05/04 04:00:22;;;;;;;;;33.00;28.75;;;;;24.87;34.29;101359.88;5020906;28;45679;-79
2022/05/04 04:02:47;;;;;;;;;43.75;30.50;;;;;24.13;35.68;101369.47;5021057;28;45630;-79
2022/05/04 04:05:13;;;;;;;;;32.25;27.75;;;;;23.85;36.15;101364.53;5021781;28;45925;-79
2022/05/04 04:07:38;;;;;;;;;32.00;26.75;;;;;23.67;36.73;101368.50;5003004;28;45239;-79
2022/05/04 04:10:04;;;;;;;;;29.00;24.25;;;;;23.39;37.21;101373.44;5021646;28;45280;-79
2022/05/04 04:12:29;;;;;;;;;30.00;23.25;;;;;23.13;37.35;101363.66;5020845;28;45498;-79
2022/05/04 04:14:55;;;;;;;;;44.50;27.75;;;;;23.14;36.82;101367.22;5021449;28;46055;-79
2022/05/04 04:17:20;;;;;;;;;28.00;25.00;;;;;23.01;37.22;101358.81;5003430;28;45326;-79
2022/05/04 04:21:50;;;;;;;;;33.50;25.50;;;;;23.05;37.09;101368.22;5020975;28;45317;-79
2022/05/04 04:22:31;;;;;;;;;35.25;26.25;;;;;23.06;37.25;101367.22;5020779;28;45627;-79
2022/05/04 04:24:56;;;;;;;;;31.50;20.75;;;;;23.11;36.98;101365.72;5021374;28;45985;-79
2022/05/04 04:27:21;;;;;;;;;31.00;23.75;;;;;23.13;37.87;101379.84;4990020;28;45468;-79
2022/05/04 04:29:47;;;;;;;;;39.75;29.25;;;;;23.28;36.84;101388.09;5003363;28;45428;-79
2022/05/04 04:32:12;;;;;;;;;40.00;28.75;;;;;23.47;36.61;101385.03;5021141;28;45568;-79
2022/05/04 04:34:37;;;;;;;;;36.75;29.50;;;;;23.23;36.90;101373.44;5020960;28;46066;-79
2022/05/04 04:37:03;;;;;;;;;30.00;28.75;;;;;23.40;36.36;101380.47;5021134;28;45392;-79
2022/05/04 04:39:28;;;;;;;;;29.75;25.50;;;;;22.66;37.89;101378.81;5021040;28;45304;-79
2022/05/04 04:41:54;;;;;;;;;33.75;30.75;;;;;22.34;38.62;101383.09;5004985;28;45718;-79
2022/05/04 04:44:19;;;;;;;;;29.50;24.00;;;;;23.02;37.92;101369.44;5025324;28;45468;-79
2022/05/04 04:46:44;;;;;;;;;34.50;26.25;;;;;23.16;37.01;101380.50;5025202;28;45397;-78
2022/05/04 04:49:10;;;;;;;;;29.00;24.75;;;;;23.19;36.89;101374.78;5024870;28;45196;-79
2022/05/04 04:51:35;;;;;;;;;34.50;29.25;;;;;23.16;37.54;101383.22;5024997;28;45312;-79
2022/05/04 04:54:00;;;;;;;;;32.25;27.50;;;;;23.14;37.16;101389.59;5024969;28;46324;-79
2022/05/04 04:56:26;;;;;;;;;35.50;28.75;;;;;23.13;37.00;101379.84;5023179;28;45320;-79
2022/05/04 04:58:51;;;;;;;;;36.25;27.50;;;;;22.96;37.12;101377.31;5020673;28;45267;-79
2022/05/04 05:01:16;;;;;;;;;37.00;29.25;;;;;28.64;31.30;101358.81;5020192;28;45277;-79
2022/05/04 05:03:42;;;;;;;;;27.75;23.25;;;;;24.16;35.16;101383.44;5019864;28;45250;-79
2022/05/04 05:06:07;;;;;;;;;30.00;22.75;;;;;23.50;36.31;101384.69;5020693;28;45309;-79
2022/05/04 05:08:32;;;;;;;;;29.50;26.50;;;;;23.36;36.27;101382.69;5020782;28;45334;-79
2022/05/04 05:10:58;;;;;;;;;32.00;26.50;;;;;23.31;36.83;101386.91;5020416;28;45304;-79
2022/05/04 05:13:23;;;;;;;;;32.50;27.00;;;;;23.44;36.42;101393.44;5002615;28;46915;-79
2022/05/04 05:16:07;;;;;;;;;35.75;22.25;;;;;23.30;36.92;101382.53;5020556;28;45372;-79
2022/05/04 05:18:32;;;;;;;;;34.75;27.00;;;;;24.24;35.00;101396.94;5020228;28;45435;-79
2022/05/04 05:20:57;;;;;;;;;30.75;25.00;;;;;23.56;36.58;101404.75;5001093;28;45435;-79
2022/05/04 05:23:23;;;;;;;;;37.00;25.25;;;;;23.39;36.85;101409.31;5020261;28;45297;-79
2022/05/04 05:25:49;;;;;;;;;42.75;27.75;;;;;23.33;36.76;101401.88;5020230;28;45641;-79
2022/05/04 05:28:14;;;;;;;;;30.25;22.00;;;;;35.94;21.92;101367.50;5020550;28;45409;-79
2022/05/04 05:30:42;;;;;;;;;31.50;24.50;;;;;37.93;19.75;101368.09;4998037;28;45436;-79
2022/05/04 05:33:07;;;;;;;;;29.00;21.75;;;;;38.50;18.39;101373.50;4993210;28;46968;-79
2022/05/04 05:35:33;;;;;;;;;33.00;25.00;;;;;38.77;18.95;101373.28;5020216;28;45390;-79
2022/05/04 05:37:58;;;;;;;;;31.50;23.75;;;;;39.24;18.54;101373.00;5021769;28;45554;-79
2022/05/04 05:40:24;;;;;;;;;28.50;26.50;;;;;39.55;17.98;101379.28;5006054;28;45649;-79
2022/05/04 05:42:49;;;;;;;;;33.50;26.25;;;;;39.91;17.79;101378.06;5024164;28;45356;-79
2022/05/04 05:45:15;;;;;;;;;30.00;25.25;;;;;40.08;17.21;101382.41;5024149;28;45411;-79
2022/05/04 05:47:40;;;;;;;;;26.25;20.50;;;;;40.28;17.19;101387.84;5024059;28;45662;-79
2022/05/04 05:50:07;;;;;;;;;28.00;25.00;;;;;40.21;16.85;101379.84;5004885;28;46164;-79
2022/05/04 05:52:32;;;;;;;;;34.25;25.50;;;;;27.10;29.44;101416.22;5020409;28;46324;-79
2022/05/04 05:54:58;;;;;;;;;30.50;25.00;;;;;25.23;32.27;101425.81;5020169;28;45354;-79
2022/05/04 05:57:24;;;;;;;;;38.75;25.50;;;;;24.51;34.25;101429.84;4998824;28;45516;-79
2022/05/04 05:59:49;;;;;;;;;33.75;24.25;;;;;24.63;33.69;101420.34;4995506;28;45518;-79
2022/05/04 06:02:15;;;;;;;;;27.25;23.25;;;;;24.21;34.59;101428.84;4996211;28;47992;-79
2022/05/04 06:04:40;;;;;;;;;26.00;21.25;;;;;24.22;34.88;101427.81;4998559;28;46016;-79
2022/05/04 06:07:05;;;;;;;;;42.50;29.25;;;;;24.16;34.66;101434.72;5017447;28;45488;-79
2022/05/04 06:09:31;;;;;;;;;32.75;23.50;;;;;27.46;28.50;101420.69;5018394;28;45423;-79
2022/05/04 06:11:56;;;;;;;;;34.50;27.00;;;;;34.40;23.01;101400.16;5004114;28;47325;-79
2022/05/04 06:14:22;;;;;;;;;33.00;26.75;;;;;37.77;19.34;101392.00;5017748;28;45435;-79
2022/05/04 06:16:49;;;;;;;;;28.75;27.25;;;;;31.10;24.20;101421.41;5017009;28;46481;-79
2022/05/04 06:19:15;;;;;;;;;27.75;24.75;;;;;25.78;31.82;101424.63;5014680;28;46588;-79
2022/05/04 06:21:40;;;;;;;;;33.50;26.75;;;;;24.74;32.98;101444.25;5022932;28;46416;-79
2022/05/04 06:24:06;;;;;;;;;35.00;27.75;;;;;29.12;30.72;101420.38;5017366;28;45379;-79
2022/05/04 06:26:32;;;;;;;;;32.75;26.25;;;;;28.17;31.68;101430.34;5002551;28;45529;-79
2022/05/04 06:28:57;;;;;;;;;30.00;24.75;;;;;24.49;33.32;101451.63;4999803;28;45565;-79
2022/05/04 06:34:12;;;;;;;;;39.75;28.00;;;;;24.02;34.35;101442.72;4982559;28;45413;-79
2022/05/04 06:36:39;;;;;;;;;27.50;21.25;;;;;24.08;34.69;101452.81;5026624;28;45369;-80
2022/05/04 06:39:05;;;;;;;;;32.50;24.25;;;;;24.07;34.95;101459.22;5025654;28;45310;-80
2022/05/04 06:41:31;;;;;;;;;30.50;24.50;;;;;24.03;35.28;101452.50;5008434;28;47514;-80
2022/05/04 06:43:56;;;;;;;;;31.50;25.75;;;;;24.02;35.45;101446.25;5007495;28;46151;-80
2022/05/04 06:46:22;;;;;;;;;25.50;24.00;;;;;24.01;35.39;101452.69;5001648;28;45523;-80
2022/05/04 06:48:50;;;;;;;;;35.25;27.00;;;;;24.07;35.70;101443.03;5019796;28;45467;-80
2022/05/04 06:51:17;;;;;;;;;31.00;27.50;;;;;24.45;34.95;101436.81;5023035;28;46022;-80
2022/05/04 06:53:42;;;;;;;;;38.50;29.00;;;;;24.38;34.56;101440.41;5001816;28;45552;-80
2022/05/04 06:56:08;;;;;;;;;29.25;24.50;;;;;24.46;34.36;101430.41;5021808;28;45408;-79
2022/05/04 06:58:34;;;;;;;;;32.75;25.25;;;;;24.61;34.64;101442.13;5021357;28;45840;-80
2022/05/04 07:00:59;;;;;;;;;41.25;30.50;;;;;25.44;33.06;101429.69;5019354;28;46268;-80
2022/05/04 07:03:25;;;;;;;;;32.50;28.50;;;;;24.94;34.14;101431.16;5020379;28;45550;-80
2022/05/04 07:05:50;;;;;;;;;34.00;27.00;;;;;26.82;31.50;101428.84;5021582;28;45578;-80
2022/05/04 07:08:16;;;;;;;;;42.00;27.00;;;;;25.69;33.44;101440.09;5021406;28;45356;-80
2022/05/04 07:10:42;;;;;;;;;47.50;32.75;;;;;25.64;33.66;101436.28;5021598;28;48378;-80
2022/05/04 07:13:07;;;;;;;;;38.25;26.00;;;;;26.20;32.55;101426.66;5019167;28;46035;-80
2022/05/04 07:15:33;;;;;;;;;42.25;30.25;;;;;26.30;31.96;101443.50;5021092;28;45516;-80
2022/05/04 07:17:59;;;;;;;;;37.00;27.25;;;;;25.83;33.00;101435.72;5015755;28;45495;-80
2022/05/04 07:20:24;;;;;;;;;38.00;26.25;;;;;25.89;32.47;101436.84;5021600;28;46164;-80
2022/05/04 07:22:50;;;;;;;;;33.75;26.75;;;;;25.68;33.18;101440.28;5020962;28;45236;-80
2022/05/04 07:25:16;;;;;;;;;43.00;32.00;;;;;25.71;32.96;101446.16;5014130;28;45475;-80
2022/05/04 07:27:41;;;;;;;;;38.50;28.75;;;;;25.66;32.97;101445.91;5018975;28;45525;-80
2022/05/04 07:30:07;;;;;;;;;35.25;25.25;;;;;25.84;32.72;101450.09;5021046;28;45634;-80
2022/05/04 07:32:32;;;;;;;;;29.25;22.75;;;;;25.71;33.12;101457.00;5018902;28;45543;-81
2022/05/04 07:35:02;;;;;;;;;35.75;30.00;;;;;25.99;32.70;101451.78;5018563;28;45545;-79
2022/05/04 07:37:27;;;;;;;;;45.00;33.00;;;;;25.82;33.09;101457.56;5020487;28;45945;-80
2022/05/04 07:42:39;;;;;;;;;40.50;31.75;;;;;27.13;32.72;101459.19;5016950;28;45656;-79
2022/05/04 07:45:08;;;;;;;;;44.25;32.25;;;;;27.39;32.19;101465.91;5019582;28;45534;-80
2022/05/04 07:47:37;;;;;;;;;34.00;28.75;;;;;27.47;31.65;101458.47;5015197;28;45603;-78
2022/05/04 07:50:05;;;;;;;;;38.00;30.50;;;;;27.36;31.72;101464.44;5018378;28;46679;-80
2022/05/04 07:52:31;;;;;;;;;39.75;31.75;;;;;27.61;31.17;101464.84;5018654;28;45484;-83
2022/05/04 07:54:57;;;;;;;;;43.00;31.50;;;;;27.65;31.43;101458.00;5019145;28;45464;-80
2022/05/04 07:57:23;;;;;;;;;37.75;30.00;;;;;27.74;31.55;101454.09;5001160;28;45514;-81
2022/05/04 08:05:30;;;;;;;;;44.50;28.75;;;;;28.20;31.20;101467.97;5028597;28;45586;-81
2022/05/04 08:07:56;;;;;;;;;44.00;32.00;;;;;28.50;30.89;101465.78;5029182;28;45605;-81
2022/05/04 08:10:22;;;;;;;;;40.50;32.00;;;;;28.92;30.33;101463.88;5024840;28;45400;-81
2022/05/04 08:12:47;;;;;;;;;53.25;37.50;;;;;28.67;30.41;101460.84;5010810;28;45484;-81
2022/05/04 08:15:13;;;;;;;;;85.25;49.00;;;;;28.62;30.38;101461.44;5025024;28;45480;-82
2022/05/04 08:17:38;;;;;;;;;56.00;35.50;;;;;28.66;30.49;101460.00;5023946;28;45218;-83
2022/05/04 08:20:04;;;;;;;;;43.75;32.75;;;;;28.57;29.81;101463.13;5005350;28;47122;-83
2022/05/04 08:22:29;;;;;;;;;44.00;32.75;;;;;28.44;30.30;101465.78;5010147;28;45782;-84
2022/05/04 08:24:55;;;;;;;;;40.75;33.75;;;;;28.55;30.28;101468.75;4989825;28;45417;-81
2022/05/04 08:27:20;;;;;;;;;46.50;33.50;;;;;29.34;28.83;101454.47;4981129;28;45696;-81
2022/05/04 08:29:46;;;;;;;;;38.25;29.25;;;;;29.23;29.83;101465.97;5005505;28;45428;-81
2022/05/04 08:32:13;;;;;;;;;44.75;29.00;;;;;29.56;28.73;101466.03;4997819;28;45440;-81
2022/05/04 08:34:38;;;;;;;;;36.25;28.25;;;;;29.55;29.03;101470.63;4998107;28;45487;-83
2022/05/04 08:37:04;;;;;;;;;39.75;31.00;;;;;29.68;28.87;101448.00;4981981;28;45466;-80
2022/05/04 08:39:30;;;;;;;;;46.25;32.00;;;;;29.83;28.76;101459.50;4999588;28;45621;-81
2022/05/04 08:41:56;;;;;;;;;37.25;27.50;;;;;30.27;28.80;101455.19;4990045;28;45575;-82
2022/05/04 08:44:22;;;;;;;;;43.25;33.75;;;;;30.36;28.02;101460.19;4998795;28;45377;-80
2022/05/04 08:46:50;;;;;;;;;47.25;32.75;;;;;30.06;27.89;101448.97;4999282;28;45172;-80
2022/05/04 08:49:19;;;;;;;;;41.75;31.75;;;;;29.98;28.42;101451.09;4998541;28;46962;-80
2022/05/04 08:51:45;;;;;;;;;42.25;35.00;;;;;30.59;28.27;101446.06;4997762;28;45559;-84
2022/05/04 08:54:11;;;;;;;;;46.00;31.25;;;;;32.61;27.73;101457.19;5001198;28;45413;-82
2022/05/04 08:56:37;;;;;;;;;51.75;36.50;;;;;33.23;26.88;101460.56;4999795;28;45433;-82
2022/05/04 08:59:06;;;;;;;;;40.75;33.25;;;;;34.09;26.58;101457.09;5000753;28;45296;-82
2022/05/04 09:01:41;;;;;;;;;45.00;34.00;;;;;36.83;24.68;101463.44;4997649;28;46081;-82
2022/05/04 09:04:07;;;;;;;;;37.00;28.25;;;;;39.82;20.39;101456.34;4999482;28;45338;-82
2022/05/04 09:06:37;;;;;;;;;40.00;29.00;;;;;41.35;20.02;101462.69;5000647;28;45476;-83
2022/05/04 09:09:13;;;;;;;;;39.50;30.75;;;;;42.39;18.36;101455.44;4999758;28;45286;-83
2022/05/04 09:11:46;;;;;;;;;39.50;28.00;;;;;42.59;18.32;101462.66;4979850;28;45425;-82
2022/05/04 09:14:17;;;;;;;;;40.75;32.00;;;;;42.23;18.01;101465.09;4996722;28;45418;-82
2022/05/04 09:16:43;;;;;;;;;37.75;30.00;;;;;43.59;17.39;101461.31;4991663;28;45573;-83
2022/05/04 09:19:14;;;;;;;;;38.75;30.75;;;;;42.96;15.62;101469.34;4999893;28;46409;-82
2022/05/04 09:21:40;;;;;;;;;46.25;32.50;;;;;43.45;15.69;101465.97;5018174;28;45312;-83
2022/05/04 09:24:06;;;;;;;;;34.00;29.00;;;;;42.55;16.47;101467.16;4999431;28;45350;-83
2022/05/04 09:26:37;;;;;;;;;37.50;30.75;;;;;43.61;15.25;101459.88;5018694;28;45463;-82
2022/05/04 09:29:05;;;;;;;;;31.50;28.50;;;;;44.60;15.51;101463.94;5002114;28;46217;-83
2022/05/04 09:31:32;;;;;;;;;38.75;29.75;;;;;43.98;15.28;101458.06;5001491;28;45654;-83
2022/05/04 09:34:00;;;;;;;;;38.75;31.25;;;;;42.93;16.26;101454.91;5017570;28;45495;-82
2022/05/04 09:36:37;;;;;;;;;32.00;25.00;;;;;41.44;17.08;101458.16;5016602;28;45402;-83
2022/05/04 09:45:11;;;;;;;;;37.75;28.75;;;;;39.45;17.52;101445.66;5013520;28;45455;-80
2022/05/04 09:47:38;;;;;;;;;35.00;29.75;;;;;38.61;18.05;101440.63;5016882;28;45338;-83
2022/05/04 09:50:04;;;;;;;;;34.25;29.75;;;;;37.58;19.21;101441.22;5020199;28;45519;-80
2022/05/04 09:52:45;;;;;;;;;34.25;29.50;;;;;36.50;20.03;101436.94;4999352;28;46375;-82
2022/05/04 09:55:25;;;;;;;;;37.25;27.50;;;;;37.90;19.59;101435.63;5010465;28;45369;-82
2022/05/04 09:57:53;;;;;;;;;33.00;26.25;;;;;39.68;19.00;101434.00;5022914;28;45325;-82
2022/05/04 10:00:21;;;;;;;;;33.00;26.25;;;;;41.71;18.06;101436.25;5023768;28;45400;-82
2022/05/04 10:02:52;;;;;;;;;34.75;26.75;;;;;44.55;16.97;101427.81;4981267;28;45906;-83
2022/05/04 10:05:20;;;;;;;;;27.50;26.00;;;;;46.52;15.97;101432.72;5006812;28;45409;-82
2022/05/04 10:07:50;;;;;;;;;32.25;27.75;;;;;46.59;14.43;101435.00;5021370;28;46054;-82
2022/05/04 10:17:51;;;;;;;;;27.50;24.00;;;;;42.92;15.00;101427.41;5018772;28;46468;-83
2022/05/04 10:20:45;;;;;;;;;24.25;22.50;;;;;42.22;15.45;101438.44;5000311;28;45659;-83
2022/05/04 10:24:01;;;;;;;;;;;;;;;;;;;;;
2022/05/04 10:26:46;;;;;;;;;24.75;23.50;;;;;42.10;15.27;101433.31;5018383;28;71951;-81
2022/05/04 10:33:07;;;;;;;;;;;;;;;;;;;;;
2022/05/04 10:36:19;;;;;;;;;;;;;;;;;;;;;
2022/05/04 10:39:44;;;;;;;;;;;;;;;;;;;;;
2022/05/04 10:43:01;;;;;;;;;;;;;;;;;;;;;
2022/05/04 10:49:15;;;;;;;;;;;;;;;;;;;;;
2022/05/04 10:51:56;;;;;;;;;;;;;;;;;;;;;
2022/05/04 10:54:38;;;;;;;;;;;;;;;;;;;;;
2022/05/04 10:57:36;;;;;;;;;22.00;16.25;;;;;38.12;17.90;101447.34;5003210;28;72987;-83
2022/05/04 11:00:15;;;;;;;;;;;;;;;;;;;;;
2022/05/04 11:03:25;;;;;;;;;;;;;;;;;;;;;
2022/05/04 11:06:07;;;;;;;;;;;;;;;;;;;;;
2022/05/04 11:11:24;;;;;;;;;26.00;21.75;;;;;36.35;19.41;101443.91;5006259;28;47469;-83
2022/05/04 11:14:02;;;;;;;;;;;;;;;;;;;;;
2022/05/04 11:16:34;;;;;;;;;27.25;24.00;;;;;35.70;20.76;101435.59;5017658;28;67649;-82
2022/05/04 11:19:01;;;;;;;;;21.75;20.00;;;;;35.57;20.49;101439.53;5010407;28;45230;-83
2022/05/04 11:21:30;;;;;;;;;20.50;16.75;;;;;35.53;20.45;101427.38;5002268;28;45278;-82
2022/05/04 11:24:02;;;;;;;;;19.00;17.25;;;;;35.46;20.62;101425.91;4984664;28;45370;-82
2022/05/04 11:26:38;;;;;;;;;23.25;18.00;;;;;35.37;20.38;101427.41;5002415;28;45333;-83
2022/05/04 11:29:23;;;;;;;;;17.00;17.00;;;;;35.27;20.34;101422.59;5002439;28;45377;-82
2022/05/04 11:31:58;;;;;;;;;23.25;21.75;;;;;35.09;20.44;101411.81;5004248;28;47041;-82
2022/05/04 11:34:31;;;;;;;;;18.00;15.75;;;;;34.60;20.78;101418.91;5021769;28;45498;-82
2022/05/04 11:37:01;;;;;;;;;20.00;18.50;;;;;34.36;21.03;101421.75;5022358;28;45278;-82
2022/05/04 11:39:30;;;;;;;;;16.25;14.25;;;;;34.07;21.40;101420.84;5021846;28;45356;-82
2022/05/04 11:42:02;;;;;;;;;17.25;13.75;;;;;33.51;22.04;101420.69;5022601;28;45479;-82
2022/05/04 11:44:33;;;;;;;;;18.50;17.25;;;;;34.19;21.71;101426.31;5003399;28;45412;-83
2022/05/04 11:47:01;;;;;;;;;14.50;12.75;;;;;34.30;21.47;101416.41;5021939;28;45490;-83
2022/05/04 11:49:28;;;;;;;;;11.75;11.00;;;;;34.50;20.38;101425.03;5001129;28;45448;-81
2022/05/04 11:51:55;;;;;;;;;12.25;9.25;;;;;34.61;20.18;101412.31;5021433;28;45566;-82
2022/05/04 11:54:21;;;;;;;;;8.25;7.50;;;;;34.70;20.28;101414.41;5020647;28;45614;-83
2022/05/04 11:56:47;;;;;;;;;11.75;9.50;;;;;34.56;20.18;101410.34;4997704;28;45370;-82
2022/05/04 11:59:13;;;;;;;;;10.00;8.50;;;;;34.67;20.23;101414.94;4997897;28;45557;-83
2022/05/04 12:01:40;;;;;;;;;11.00;10.75;;;;;34.39;20.41;101406.72;5021225;28;45291;-84
2022/05/04 12:04:07;;;;;;;;;9.75;9.00;;;;;34.36;20.51;101404.44;4998622;28;45600;-83
2022/05/04 12:06:42;;;;;;;;;8.25;7.00;;;;;34.44;20.55;101402.16;5001226;28;45378;-79
2022/05/04 12:09:08;;;;;;;;;13.00;10.50;;;;;34.52;20.38;101399.00;5019906;28;45637;-80
2022/05/04 12:11:34;;;;;;;;;11.25;7.75;;;;;34.66;20.59;101398.72;5021180;28;46264;-80